Time;durP1;ratioP1;P1;durP2;ratioP2;P2;SDS_P1;SDS_P2;PMS_P1;PMS_P2;Temp;Humidity;BMP_temperature;BMP_pressure;BME280_temperature;BME280_humidity;BME280_pressure;Samples;Min_cycle;Max_cycle;Signal;HPM_P1;HPM_P2
2021/11/08 00:00:37;;;;;;;10.40;4.32;;;;;;;5.95;98.77;99460.25;5013934;28;20087;-78
2021/11/08 00:03:26;;;;;;;6.63;4.07;;;;;;;5.91;98.94;99450.72;5013901;28;20053;-79
2021/11/08 00:06:11;;;;;;;9.13;4.10;;;;;;;5.97;98.44;99456.75;5013953;28;20045;-79
2021/11/08 00:08:55;;;;;;;6.25;3.88;;;;;;;5.96;98.15;99455.03;5027867;28;20034;-79
2021/11/08 00:11:40;;;;;;;9.40;4.60;;;;;;;5.99;98.02;99449.78;5014589;28;20401;-79
2021/11/08 00:14:25;;;;;;;9.13;4.35;;;;;;;6.05;97.93;99461.88;5014467;28;20138;-78
2021/11/08 00:20:22;;;;;;;9.10;4.15;;;;;;;6.08;96.92;99472.22;5014397;28;20046;-79
2021/11/08 00:23:08;;;;;;;;;;;;;;;6.08;97.32;99470.50;5000408;28;20052;-78
2021/11/08 00:25:53;;;;;;;9.55;3.72;;;;;;;6.07;97.20;99476.56;5027636;28;19968;-79
2021/11/08 00:28:38;;;;;;;9.57;3.95;;;;;;;6.09;96.75;99472.19;5013371;28;20432;-79
2021/11/08 00:31:23;;;;;;;9.15;3.33;;;;;;;6.05;97.21;99472.28;5013541;28;20042;-79
2021/11/08 00:34:07;;;;;;;7.78;3.25;;;;;;;6.06;97.09;99479.19;5013670;28;20038;-79
2021/11/08 00:36:52;;;;;;;8.57;3.28;;;;;;;6.02;96.65;99473.16;5014273;28;20440;-79
2021/11/08 00:39:38;;;;;;;9.45;3.47;;;;;;;5.96;97.18;99478.44;5012709;28;20058;-79
2021/11/08 00:42:24;;;;;;;9.48;3.90;;;;;;;5.95;96.87;99476.72;5013178;28;20045;-79
2021/11/08 00:45:09;;;;;;;7.15;3.17;;;;;;;6.00;96.86;99480.09;5014050;28;20432;-79
2021/11/08 00:47:55;;;;;;;7.63;2.95;;;;;;;5.90;97.08;99483.66;5013208;28;20062;-79
2021/11/08 00:50:42;;;;;;;11.00;2.95;;;;;;;5.94;96.84;99477.56;5014070;28;20399;-78
2021/11/08 00:53:27;;;;;;;12.15;3.17;;;;;;;6.01;96.46;99478.38;5027353;28;20046;-78
2021/11/08 00:56:17;;;;;;;7.85;2.65;;;;;;;6.01;96.59;99484.44;4999333;28;20038;-79
2021/11/08 00:59:01;;;;;;;8.63;2.53;;;;;;;5.99;96.32;99483.59;5013709;28;20120;-79
2021/11/08 01:01:48;;;;;;;9.55;2.38;;;;;;;6.03;96.19;99484.41;5013041;28;20042;-79
2021/11/08 01:04:32;;;;;;;6.75;2.10;;;;;;;6.03;96.29;99481.81;5012946;28;20042;-79
2021/11/08 01:07:17;;;;;;;7.07;2.53;;;;;;;6.05;95.91;99477.47;5013145;28;20065;-79
2021/11/08 01:10:15;;;;;;;9.70;2.85;;;;;;;6.02;95.67;99483.56;5013581;28;20042;-79
2021/11/08 01:13:00;;;;;;;8.18;2.83;;;;;;;6.04;95.74;99481.78;5013605;28;20038;-79
2021/11/08 01:15:44;;;;;;;7.13;2.53;;;;;;;5.97;96.05;99482.75;5013436;28;20432;-79
2021/11/08 01:18:29;;;;;;;10.43;2.75;;;;;;;5.97;95.97;99487.94;5012751;28;20046;-79
2021/11/08 01:21:13;;;;;;;8.50;2.05;;;;;;;6.07;95.42;99486.09;5013415;28;20042;-79
2021/11/08 01:23:59;;;;;;;8.50;2.33;;;;;;;5.99;95.48;99485.34;5012672;28;20114;-79
2021/11/08 01:26:46;;;;;;;7.70;2.88;;;;;;;6.05;95.33;99490.47;5026712;28;20046;-79
2021/11/08 01:29:34;;;;;;;6.28;2.10;;;;;;;6.05;94.89;99493.94;4998886;28;20053;-79
2021/11/08 01:32:18;;;;;;;9.80;3.47;;;;;;;6.01;95.53;99500.06;5012691;28;20065;-79
2021/11/08 01:35:04;;;;;;;5.80;1.60;;;;;;;6.05;95.21;99496.53;5013194;28;20483;-78
2021/11/08 01:38:00;;;;;;;4.57;1.88;;;;;;;6.00;95.20;99493.09;5012545;28;20458;-79
2021/11/08 01:40:44;;;;;;;8.02;2.10;;;;;;;6.01;95.07;99496.56;5012372;28;20046;-79
2021/11/08 01:43:29;;;;;;;5.43;2.40;;;;;;;6.04;95.07;99497.38;4998633;28;20046;-78
2021/11/08 01:46:15;;;;;;;5.78;1.70;;;;;;;5.98;95.52;99491.41;5012776;28;20041;-78
2021/11/08 01:49:00;;;;;;;5.95;1.80;;;;;;;6.01;95.31;99491.38;5012489;28;20121;-78
2021/11/08 01:51:44;;;;;;;7.40;2.10;;;;;;;6.00;94.73;99497.44;5013900;28;20046;-78
2021/11/08 01:54:29;;;;;;;5.32;1.80;;;;;;;5.97;95.18;99490.53;5015873;28;20446;-79
2021/11/08 01:57:14;;;;;;;9.25;1.77;;;;;;;6.03;94.61;99500.00;5015694;28;20042;-79
2021/11/08 02:00:00;;;;;;;9.85;2.28;;;;;;;6.04;94.66;99499.97;5016627;28;20041;-78
2021/11/08 02:02:45;;;;;;;8.40;2.58;;;;;;;5.99;94.84;99504.41;5015740;28;20042;-78
2021/11/08 02:05:29;;;;;;;9.45;2.42;;;;;;;6.00;94.70;99508.72;5015871;28;20447;-78
2021/11/08 02:08:15;;;;;;;11.25;2.13;;;;;;;6.01;94.81;99504.34;5016440;28;20094;-78
2021/11/08 02:10:59;;;;;;;7.95;3.05;;;;;;;6.00;95.19;99500.06;5015884;28;20045;-78
2021/11/08 02:13:44;;;;;;;4.72;2.13;;;;;;;5.97;95.20;99508.75;5015544;28;20052;-78
2021/11/08 02:16:29;;;;;;;6.15;2.05;;;;;;;6.00;94.84;99510.44;5016158;28;20129;-79
2021/11/08 02:19:14;;;;;;;7.88;2.08;;;;;;;6.01;95.06;99513.06;5016247;28;20042;-78
2021/11/08 02:22:01;;;;;;;5.22;1.42;;;;;;;5.99;94.82;99514.78;5001844;28;20050;-79
2021/11/08 02:24:46;;;;;;;14.48;2.60;;;;;;;5.97;95.16;99518.28;5015416;28;20355;-78
2021/11/08 02:27:30;;;;;;;4.63;1.38;;;;;;;6.01;94.90;99519.97;5015680;28;20050;-78
2021/11/08 02:30:17;;;;;;;7.75;1.48;;;;;;;6.04;94.39;99512.97;5016042;28;20038;-78
2021/11/08 02:33:03;;;;;;;6.20;1.42;;;;;;;6.03;94.60;99519.06;5015338;28;20065;-78
2021/11/08 02:35:48;;;;;;;5.72;1.70;;;;;;;6.05;94.40;99526.88;5015161;28;20046;-79
2021/11/08 02:38:37;;;;;;;5.28;1.92;;;;;;;5.94;94.96;99519.16;5029093;28;20054;-79
2021/11/08 02:41:22;;;;;;;10.25;3.10;;;;;;;5.97;95.02;99526.09;5001543;28;20045;-79
2021/11/08 02:44:07;;;;;;;9.13;2.63;;;;;;;5.98;94.47;99522.59;5015762;28;20120;-79
2021/11/08 02:46:53;;;;;;;7.55;2.13;;;;;;;5.98;94.82;99528.69;5015098;28;20049;-79
2021/11/08 02:49:41;;;;;;;4.10;1.67;;;;;;;6.03;95.00;99526.88;5014878;28;20050;-78
2021/11/08 02:52:27;;;;;;;5.60;1.83;;;;;;;6.04;94.67;99538.97;5015649;28;20042;-78
2021/11/08 02:55:15;;;;;;;6.85;1.50;;;;;;;6.03;94.66;99537.28;5015682;28;20121;-78
2021/11/08 02:58:00;;;;;;;7.10;1.92;;;;;;;5.98;94.83;99539.06;5015066;28;20088;-79
2021/11/08 03:00:45;;;;;;;6.55;1.85;;;;;;;5.94;94.99;99541.72;5015046;28;20424;-78
2021/11/08 03:03:34;;;;;;;7.00;1.70;;;;;;;6.00;95.07;99534.69;5014536;28;20363;-79
2021/11/08 03:06:27;;;;;;;8.07;1.77;;;;;;;5.89;95.60;99551.28;5001294;28;20046;-78
2021/11/08 03:09:18;;;;;;;6.07;2.10;;;;;;;5.94;95.14;99552.09;5014768;28;20360;-78
2021/11/08 03:12:14;;;;;;;7.20;1.83;;;;;;;5.91;95.30;99554.69;5014758;28;20058;-78
2021/11/08 03:17:46;;;;;;;9.10;2.63;;;;;;;5.91;95.37;99558.16;5015299;28;20067;-78
2021/11/08 03:20:30;;;;;;;6.50;1.52;;;;;;;5.88;95.37;99550.38;5014540;28;20352;-78
2021/11/08 03:23:14;;;;;;;10.85;2.38;;;;;;;5.90;95.61;99558.19;5015398;28;20129;-78
2021/11/08 03:28:44;;;;;;;7.45;2.28;;;;;;;5.84;95.64;99565.16;5015139;28;20062;-79
2021/11/08 03:31:29;;;;;;;11.35;2.00;;;;;;;5.85;95.52;99558.25;5014320;28;20401;-78
2021/11/08 03:34:15;;;;;;;8.75;1.77;;;;;;;5.78;96.03;99564.34;5015213;28;20443;-78
2021/11/08 03:37:00;;;;;;;6.90;2.85;;;;;;;5.82;95.76;99559.13;5014941;28;20042;-78
2021/11/08 03:39:45;;;;;;;8.32;2.20;;;;;;;5.89;95.44;99570.34;5028259;28;20077;-78
2021/11/08 03:42:30;;;;;;;10.73;2.72;;;;;;;5.89;95.49;99565.13;5014851;28;20050;-78
2021/11/08 03:45:14;;;;;;;8.98;2.00;;;;;;;5.89;95.35;99574.69;5014496;28;20094;-79
2021/11/08 03:47:59;;;;;;;8.18;1.83;;;;;;;5.89;95.35;99575.53;5014280;28;20038;-78
2021/11/08 03:50:44;;;;;;;8.60;2.35;;;;;;;5.83;95.72;99570.38;5014281;28;20034;-78
2021/11/08 03:53:29;;;;;;;7.93;2.50;;;;;;;5.87;96.02;99577.28;4986790;28;20123;-78
2021/11/08 03:56:14;;;;;;;12.32;2.25;;;;;;;5.84;96.56;99570.34;5000124;28;20049;-78
2021/11/08 03:59:01;;;;;;;10.27;2.13;;;;;;;5.77;97.02;99567.84;5014040;28;20042;-78
2021/11/08 04:01:45;;;;;;;10.88;2.55;;;;;;;5.76;97.26;99571.31;5014616;28;20046;-79
2021/11/08 04:04:30;;;;;;;7.97;2.08;;;;;;;5.76;97.12;99572.19;5014550;28;20439;-79
2021/11/08 04:07:15;;;;;;;11.68;2.40;;;;;;;5.81;96.89;99566.94;5013899;28;20041;-78
2021/11/08 04:09:59;;;;;;;11.02;1.80;;;;;;;5.80;97.16;99573.88;5013952;28;20091;-78
2021/11/08 04:12:46;;;;;;;7.05;2.15;;;;;;;5.75;97.21;99566.97;5014471;28;20121;-78
2021/11/08 04:15:38;;;;;;;7.57;2.10;;;;;;;5.79;96.93;99569.56;5013571;28;20099;-78
2021/11/08 04:18:25;;;;;;;13.02;3.17;;;;;;;5.80;96.95;99568.66;5013777;28;20062;-79
2021/11/08 04:21:10;;;;;;;8.98;2.13;;;;;;;5.73;96.92;99564.41;5014749;28;20166;-78
2021/11/08 04:23:55;;;;;;;9.98;2.33;;;;;;;5.82;96.53;99566.06;5013826;28;20164;-78
2021/11/08 04:26:39;;;;;;;14.38;2.47;;;;;;;5.75;96.86;99570.47;5013514;28;20049;-78
2021/11/08 04:29:24;;;;;;;7.63;2.67;;;;;;;5.80;97.08;99573.00;5014199;28;20045;-78
2021/11/08 04:32:09;;;;;;;9.98;2.03;;;;;;;5.80;96.81;99562.63;4999696;28;20428;-78
2021/11/08 04:35:03;;;;;;;5.38;1.70;;;;;;;5.72;96.80;99565.31;5014191;28;20049;-78
2021/11/08 04:38:10;;;;;;;7.65;2.38;;;;;;;5.82;96.48;99571.28;5027018;28;20106;-79
2021/11/08 04:50:10;;;;;;;8.63;2.05;;;;;;;5.90;95.78;99587.63;5013856;28;20049;-78
2021/11/08 04:53:12;;;;;;;8.05;1.95;;;;;;;5.85;96.02;99584.25;5013832;28;20041;-78
2021/11/08 05:30:02;;;;;;;13.80;5.28;;;;;;;5.99;94.33;99603.19;5013284;28;20443;-79
2021/11/08 05:32:51;;;;;;;24.65;7.47;;;;;;;6.00;94.44;99599.69;5013270;28;20049;-79
2021/11/08 05:35:36;;;;;;;23.90;8.10;;;;;;;6.04;94.33;99610.94;4998764;28;20046;-78
2021/11/08 05:38:20;;;;;;;12.48;3.88;;;;;;;6.02;94.25;99618.75;5013137;28;20053;-79
2021/11/08 05:41:04;;;;;;;11.00;2.15;;;;;;;6.03;94.20;99623.06;5012054;28;20042;-79
2021/11/08 05:43:49;;;;;;;13.07;4.28;;;;;;;6.03;94.16;99630.03;5013385;28;20042;-77
2021/11/08 05:46:35;;;;;;;13.98;6.07;;;;;;;6.11;93.75;99625.63;5013134;28;20046;-77
2021/11/08 05:49:19;;;;;;;15.88;8.43;;;;;;;6.04;93.64;99611.78;5012479;28;20042;-77
2021/11/08 05:52:05;;;;;;;13.73;3.55;;;;;;;6.07;93.88;99634.31;5012436;28;20446;-77
2021/11/08 05:54:50;;;;;;;33.75;12.30;;;;;;;6.11;93.77;99622.13;5012673;28;20053;-77
2021/11/08 06:49:26;;;;;;;10.93;2.22;;;;;;;5.76;100.00;99722.94;5079170;28;20040;-77
2021/11/08 06:52:13;;;;;;;11.00;2.95;;;;;;;5.79;100.00;99727.25;5079069;28;20045;-77
2021/11/08 06:55:00;;;;;;;9.32;3.10;;;;;;;5.81;100.00;99725.47;5078010;28;20041;-77
2021/11/08 06:57:57;;;;;;;8.23;2.03;;;;;;;5.72;100.00;99725.53;5078683;28;20043;-77
2021/11/08 07:00:42;;;;;;;8.35;2.72;;;;;;;5.81;100.00;99744.53;5078675;28;20052;-77
2021/11/08 07:03:26;;;;;;;15.32;3.08;;;;;;;5.71;100.00;99742.00;5063732;28;20442;-77
2021/11/08 07:06:11;;;;;;;7.32;2.33;;;;;;;5.84;100.00;99743.66;5078004;28;20420;-77
2021/11/08 07:08:56;;;;;;;7.82;2.95;;;;;;;5.84;100.00;99744.50;5078734;28;20106;-77
2021/11/08 07:11:41;;;;;;;7.38;2.70;;;;;;;5.91;100.00;99752.28;5063432;28;20044;-77
2021/11/08 07:14:25;;;;;;;12.40;2.83;;;;;;;5.80;100.00;99763.59;5077915;28;20393;-77
2021/11/08 07:17:10;;;;;;;13.35;2.70;;;;;;;5.77;100.00;99758.44;5077887;28;20044;-78
2021/11/08 07:19:56;;;;;;;17.63;2.55;;;;;;;5.87;100.00;99764.44;5078581;28;20040;-77
2021/11/08 07:22:41;;;;;;;9.38;2.97;;;;;;;5.92;100.00;99773.06;5078005;28;20045;-77
2021/11/08 07:25:25;;;;;;;10.40;2.65;;;;;;;5.92;100.00;99769.63;5077526;28;20059;-77
2021/11/08 07:28:12;;;;;;;7.43;3.38;;;;;;;5.86;100.00;99770.50;5077929;28;20094;-78
2021/11/08 07:30:56;;;;;;;8.63;4.63;;;;;;;5.95;100.00;99778.28;5077073;28;20060;-78
2021/11/08 07:33:41;;;;;;;16.13;6.25;;;;;;;5.94;100.00;99775.69;5078093;28;20051;-78
2021/11/08 07:36:25;;;;;;;14.27;4.93;;;;;;;5.95;100.00;99778.28;5062736;28;20049;-78
2021/11/08 07:39:10;;;;;;;14.73;4.93;;;;;;;6.01;100.00;99788.66;5030232;28;20054;-78
2021/11/08 07:41:54;;;;;;;13.98;4.53;;;;;;;5.98;100.00;99790.38;5000809;28;20094;-78
2021/11/08 07:44:38;;;;;;;13.07;4.22;;;;;;;5.92;100.00;99791.28;5014287;28;20046;-78
2021/11/08 07:47:23;;;;;;;11.98;4.60;;;;;;;5.87;100.00;99790.44;5014472;28;20046;-77
2021/11/08 07:50:08;;;;;;;13.18;3.30;;;;;;;6.03;100.00;99799.88;5000044;28;20042;-77
2021/11/08 07:52:52;;;;;;;8.40;3.00;;;;;;;6.10;100.00;99811.09;5014057;28;20052;-78
2021/11/08 07:55:38;;;;;;;15.38;3.70;;;;;;;6.08;100.00;99810.28;5014541;28;20045;-78
2021/11/08 07:58:22;;;;;;;18.42;5.20;;;;;;;6.02;100.00;99803.38;5015574;27;20045;-78
2021/11/08 08:01:09;;;;;;;14.57;3.65;;;;;;;6.06;100.00;99812.88;5018262;27;20037;-78
2021/11/08 08:03:53;;;;;;;7.10;2.22;;;;;;;6.24;100.00;99805.81;5013837;28;20041;-78
2021/11/08 08:06:38;;;;;;;8.23;2.95;;;;;;;6.30;100.00;99805.75;5027990;28;20046;-78
2021/11/08 08:09:23;;;;;;;10.50;3.63;;;;;;;6.28;100.00;99805.78;5014713;28;20447;-78
2021/11/08 08:12:08;;;;;;;7.15;2.97;;;;;;;6.34;100.00;99812.69;5072219;28;20045;-78
2021/11/08 08:14:53;;;;;;;5.95;2.90;;;;;;;6.47;100.00;99806.50;5012444;28;20042;-77
2021/11/08 08:17:38;;;;;;;8.32;2.50;;;;;;;6.34;100.00;99810.09;4997554;28;20056;-78
2021/11/08 08:20:23;;;;;;;7.82;2.50;;;;;;;6.41;100.00;99819.56;4997908;28;20487;-78
2021/11/08 08:23:08;;;;;;;7.50;2.03;;;;;;;6.35;100.00;99813.53;5012092;28;20034;-78
2021/11/08 08:25:53;;;;;;;5.35;2.97;;;;;;;6.42;100.00;99810.00;5012615;28;20384;-78
2021/11/08 08:28:39;;;;;;;8.25;2.30;;;;;;;6.43;100.00;99817.78;5012987;28;20042;-78
2021/11/08 08:31:23;;;;;;;10.88;3.10;;;;;;;6.56;100.00;99826.34;5013577;28;20048;-78
2021/11/08 08:34:10;;;;;;;7.30;3.03;;;;;;;6.66;100.00;99833.25;5071682;28;20049;-78
2021/11/08 08:36:56;;;;;;;12.93;6.82;;;;;;;6.59;100.00;99838.50;5014035;28;20045;-78
2021/11/08 08:39:41;;;;;;;8.23;4.43;;;;;;;6.62;100.00;99834.13;5013310;28;20054;-78
2021/11/08 08:42:25;;;;;;;6.50;3.35;;;;;;;6.65;100.00;99841.91;5014391;28;20045;-78
2021/11/08 08:45:10;;;;;;;6.15;3.30;;;;;;;6.78;100.00;99840.91;5014108;28;20038;-78
2021/11/08 08:47:54;;;;;;;9.70;3.05;;;;;;;6.80;100.00;99846.13;5013640;28;20396;-78
2021/11/08 08:50:41;;;;;;;8.48;3.60;;;;;;;6.82;100.00;99843.50;5072181;28;20416;-78
2021/11/08 08:53:25;;;;;;;12.70;4.50;;;;;;;6.94;100.00;99840.78;5026964;28;20322;-78
2021/11/08 08:56:10;;;;;;;39.38;12.45;;;;;;;6.92;100.00;99850.34;5013165;28;20042;-78
2021/11/08 08:58:55;;;;;;;11.25;4.70;;;;;;;7.04;100.00;99858.03;5027427;28;20416;-78
2021/11/08 09:01:40;;;;;;;13.68;4.38;;;;;;;6.87;100.00;99853.00;5012692;28;20432;-78
2021/11/08 09:04:28;;;;;;;32.17;17.85;;;;;;;6.86;100.00;99863.41;5013069;28;20045;-78
2021/11/08 09:07:15;;;;;;;89.95;66.97;;;;;;;6.95;100.00;99866.78;5013506;28;20057;-78
2021/11/08 09:09:59;;;;;;;30.25;20.77;;;;;;;6.87;100.00;99863.41;5085568;28;20420;-78
2021/11/08 09:12:44;;;;;;;33.28;27.63;;;;;;;6.88;100.00;99870.34;5013713;28;20302;-78
2021/11/08 09:15:30;;;;;;;29.35;20.75;;;;;;;6.86;100.00;99869.50;5013351;28;20378;-78
2021/11/08 09:18:16;;;;;;;30.00;12.05;;;;;;;6.92;100.00;99869.44;5012721;28;20355;-78
2021/11/08 09:21:00;;;;;;;104.38;84.35;;;;;;;6.93;100.00;99873.78;5014038;28;20042;-78
2021/11/08 09:23:46;;;;;;;87.28;47.30;;;;;;;6.95;100.00;99868.53;5085268;28;20046;-77
2021/11/08 09:26:34;;;;;;;112.78;44.30;;;;;;;7.01;100.00;99877.16;5013387;28;20046;-78
2021/11/08 09:29:20;;;;;;;30.02;12.00;;;;;;;7.07;100.00;99878.84;5085791;28;20038;-78
2021/11/08 09:32:04;;;;;;;12.43;5.78;;;;;;;6.99;100.00;99881.53;5026789;28;20046;-78
2021/11/08 09:34:50;;;;;;;13.00;4.55;;;;;;;7.00;100.00;99872.84;4998780;28;20049;-78
2021/11/08 09:37:43;;;;;;;46.88;16.52;;;;;;;7.11;100.00;99883.13;4998659;28;20041;-78
2021/11/08 09:40:28;;;;;;;22.65;8.45;;;;;;;7.09;100.00;99887.53;4999539;28;20049;-78
2021/11/08 09:43:15;;;;;;;10.27;4.25;;;;;;;7.22;100.00;99893.47;4998500;28;20050;-78
2021/11/08 09:46:00;;;;;;;9.00;4.00;;;;;;;7.25;100.00;99891.69;5013454;28;20050;-77
2021/11/08 09:48:44;;;;;;;6.47;2.58;;;;;;;7.13;100.00;99896.16;5012504;28;20049;-78
2021/11/08 09:51:35;;;;;;;15.00;5.40;;;;;;;7.19;100.00;99896.09;5012741;28;20057;-77
2021/11/08 09:54:27;;;;;;;29.70;11.90;;;;;;;7.08;100.00;99903.16;5012767;28;20062;-77
2021/11/08 09:57:12;;;;;;;13.45;5.05;;;;;;;7.23;100.00;99897.78;5013451;28;20042;-77
2021/11/08 09:59:58;;;;;;;11.18;4.63;;;;;;;7.16;100.00;99885.72;5013093;28;20038;-78
2021/11/08 10:02:51;;;;;;;17.52;7.47;;;;;;;7.41;100.00;99895.00;5026728;28;20389;-78
2021/11/08 10:05:42;;;;;;;9.15;3.40;;;;;;;7.27;100.00;99902.09;5012737;28;20042;-78
2021/11/08 10:08:34;;;;;;;7.28;4.00;;;;;;;7.30;100.00;99899.44;5012659;28;20046;-78
2021/11/08 10:11:19;;;;;;;10.18;3.85;;;;;;;7.48;100.00;99908.84;5085070;28;20412;-78
2021/11/08 10:14:07;;;;;;;8.13;5.13;;;;;;;7.56;100.00;99913.94;5014550;28;20356;-78
2021/11/08 10:16:54;;;;;;;6.93;4.00;;;;;;;7.54;100.00;99897.47;5015908;28;20165;-78
2021/11/08 10:19:39;;;;;;;13.77;7.22;;;;;;;7.49;100.00;99908.81;5029338;28;20046;-78
2021/11/08 10:22:24;;;;;;;15.43;8.27;;;;;;;7.65;100.00;99899.06;5029622;28;20420;-78
2021/11/08 10:25:14;;;;;;;15.52;9.63;;;;;;;7.51;100.00;99903.59;5015992;28;20042;-78
2021/11/08 10:27:59;;;;;;;10.68;7.05;;;;;;;7.50;100.00;99902.69;5015384;28;20046;-78
2021/11/08 10:30:46;;;;;;;8.40;5.18;;;;;;;7.59;100.00;99906.97;5016363;28;20117;-78
2021/11/08 10:33:32;;;;;;;12.63;7.63;;;;;;;7.58;100.00;99905.25;5088858;28;20041;-78
2021/11/08 10:36:20;;;;;;;10.25;4.07;;;;;;;7.31;100.00;99908.13;5001528;28;20124;-78
2021/11/08 10:39:08;;;;;;;16.45;10.35;;;;;;;7.34;100.00;99901.13;5015631;28;20054;-78
2021/11/08 10:41:53;;;;;;;9.45;6.10;;;;;;;7.64;100.00;99906.94;5088221;28;20103;-78
2021/11/08 10:44:38;;;;;;;6.22;2.97;;;;;;;7.59;100.00;99904.34;5016215;28;20444;-78
2021/11/08 10:47:22;;;;;;;11.43;6.35;;;;;;;7.41;100.00;99915.84;5014919;28;20054;-78
2021/11/08 10:50:14;;;;;;;6.47;3.20;;;;;;;7.45;100.00;99912.34;5015697;28;20038;-78
2021/11/08 10:53:01;;;;;;;5.13;1.90;;;;;;;7.53;100.00;99900.94;5015558;28;20042;-78
2021/11/08 10:55:54;;;;;;;2.45;1.45;;;;;;;7.60;100.00;99911.28;5015467;28;20046;-78
2021/11/08 10:58:46;;;;;;;6.70;4.03;;;;;;;7.75;100.00;99910.25;5029084;28;20042;-78
2021/11/08 11:01:43;;;;;;;84.55;43.50;;;;;;;7.98;100.00;99920.41;5001269;28;20050;-78
2021/11/08 11:04:37;;;;;;;8.18;4.50;;;;;;;7.68;100.00;99919.91;5014658;28;20064;-78
2021/11/08 11:07:42;;;;;;;3.53;2.10;;;;;;;7.57;100.00;99923.50;5015347;28;20423;-78
2021/11/08 11:10:29;;;;;;;3.55;3.00;;;;;;;7.70;100.00;99925.97;5001378;28;20128;-78
2021/11/08 11:13:21;;;;;;;8.75;3.38;;;;;;;7.68;100.00;99934.69;5015090;28;20042;-78
2021/11/08 11:16:06;;;;;;;;;;;;;;;7.54;100.00;99942.66;5014851;28;20057;-78
2021/11/08 11:18:59;;;;;;;2.22;1.40;;;;;;;7.59;100.00;99945.19;5101122;28;20012;-78
2021/11/08 11:22:01;;;;;;;4.22;2.67;;;;;;;7.56;100.00;99937.41;5015456;28;20042;-78
2021/11/08 11:24:50;;;;;;;7.82;5.63;;;;;;;7.82;100.00;99937.97;5014792;28;20351;-78
2021/11/08 11:27:47;;;;;;;8.02;4.47;;;;;;;7.75;100.00;99948.50;5014901;28;20057;-78
2021/11/08 11:30:34;;;;;;;8.30;4.80;;;;;;;7.75;100.00;99944.16;5014988;28;20034;-78
2021/11/08 11:33:27;;;;;;;3.67;3.05;;;;;;;7.79;100.00;99943.22;5028160;28;20042;-78
2021/11/08 11:36:17;;;;;;;5.47;2.33;;;;;;;7.96;100.00;99946.53;5028067;28;20049;-78
2021/11/08 11:39:06;;;;;;;9.13;4.93;;;;;;;8.07;100.00;99943.75;5014117;28;20061;-78
2021/11/08 11:41:59;;;;;;;65.47;31.17;;;;;;;8.06;100.00;99939.44;5014946;28;20121;-78
2021/11/08 11:44:43;;;;;;;42.15;18.63;;;;;;;8.14;100.00;99939.34;5028758;28;20042;-78
2021/11/08 11:47:29;;;;;;;14.00;7.75;;;;;;;8.09;100.00;99942.00;5014576;28;20042;-78
2021/11/08 11:50:14;;;;;;;11.68;4.55;;;;;;;7.94;100.00;99943.06;5014352;28;20061;-78
2021/11/08 11:52:59;;;;;;;33.67;16.88;;;;;;;7.86;100.00;99942.28;5087219;28;20042;-78
2021/11/08 11:55:46;;;;;;;41.78;22.02;;;;;;;7.90;100.00;99941.38;5014578;28;20091;-78
2021/11/08 11:58:31;;;;;;;15.40;8.13;;;;;;;7.87;100.00;99940.56;5000508;28;20042;-78
2021/11/08 12:01:22;;;;;;;21.25;9.93;;;;;;;7.85;100.00;99947.50;5014541;28;20045;-78
2021/11/08 12:04:08;;;;;;;28.75;12.55;;;;;;;7.83;100.00;99938.84;5014026;28;20046;-78
2021/11/08 12:06:59;;;;;;;6.88;3.10;;;;;;;7.80;100.00;99949.31;5000262;28;20050;-78
2021/11/08 12:09:43;;;;;;;24.35;12.63;;;;;;;7.78;100.00;99951.94;5072102;28;20064;-78
2021/11/08 12:12:28;;;;;;;34.88;20.83;;;;;;;7.90;100.00;99937.91;5013847;28;20049;-78
2021/11/08 12:15:16;;;;;;;36.67;20.27;;;;;;;7.74;100.00;99939.81;5086823;28;20053;-78
2021/11/08 12:18:08;;;;;;;92.95;48.15;;;;;;;7.80;100.00;99949.31;5014654;28;20057;-78
2021/11/08 12:20:55;;;;;;;155.95;79.85;;;;;;;7.75;100.00;99946.75;5014510;28;20041;-78
2021/11/08 12:23:39;;;;;;;169.70;89.82;;;;;;;7.79;100.00;99950.19;5027686;28;20398;-78
2021/11/08 12:26:27;;;;;;;140.25;69.35;;;;;;;7.75;100.00;99945.91;5027800;28;20121;-78
2021/11/08 12:29:21;;;;;;;197.73;104.90;;;;;;;7.85;100.00;99947.50;4999653;28;20336;-78
2021/11/08 12:32:11;;;;;;;64.43;35.30;;;;;;;7.82;100.00;99940.59;5071735;28;20045;-75
2021/11/08 12:34:58;;;;;;;184.95;93.75;;;;;;;8.03;100.00;99946.44;5014205;28;20041;-76
2021/11/08 12:37:43;;;;;;;12.75;8.30;;;;;;;8.06;99.42;99944.66;5012896;28;20069;-76
2021/11/08 12:40:32;;;;;;;8.05;6.30;;;;;;;8.13;99.72;99942.84;5027362;28;20076;-75
2021/11/08 12:43:24;;;;;;;11.18;7.57;;;;;;;8.22;98.99;99945.28;5014158;28;20049;-76
2021/11/08 12:46:12;;;;;;;10.95;5.07;;;;;;;8.14;98.86;99941.94;5027361;28;20046;-75
2021/11/08 12:49:09;;;;;;;8.57;5.15;;;;;;;8.02;99.03;99949.91;5027262;28;20046;-76
2021/11/08 12:52:12;;;;;;;14.55;12.18;;;;;;;8.17;99.45;99954.94;5026900;28;20046;-76
2021/11/08 12:55:12;;;;;;;12.60;6.85;;;;;;;7.94;98.95;99958.69;5013046;28;20053;-76
2021/11/08 12:57:57;;;;;;;5.22;3.22;;;;;;;7.92;100.00;99952.63;5014571;28;20046;-76
2021/11/08 13:00:49;;;;;;;5.13;4.13;;;;;;;7.87;100.00;99962.28;5013357;28;20416;-76
2021/11/08 13:03:40;;;;;;;8.50;6.23;;;;;;;7.90;100.00;99957.03;5013619;28;20042;-76
2021/11/08 13:06:31;;;;;;;47.35;31.35;;;;;;;7.83;100.00;99957.09;5027044;28;20277;-76
2021/11/08 13:09:23;;;;;;;11.43;6.93;;;;;;;7.93;100.00;99957.00;5027174;28;20091;-76
2021/11/08 13:12:20;;;;;;;102.57;59.45;;;;;;;7.90;100.00;99954.41;5013966;28;20038;-76
2021/11/08 13:15:09;;;;;;;189.23;91.32;;;;;;;7.85;100.00;99958.81;5012768;28;20045;-76
2021/11/08 13:18:00;;;;;;;334.85;186.57;;;;;;;7.85;100.00;99964.03;5013128;28;20095;-76
2021/11/08 13:20:48;;;;;;;97.90;58.95;;;;;;;7.77;100.00;99962.38;5013154;28;20038;-76
2021/11/08 13:23:36;;;;;;;100.53;78.15;;;;;;;7.64;100.00;99967.75;5013153;28;20420;-76
2021/11/08 13:26:23;;;;;;;51.42;46.17;;;;;;;7.67;100.00;99972.03;5013688;28;20331;-76
2021/11/08 13:29:20;;;;;;;11.35;10.25;;;;;;;7.67;100.00;99961.59;5085710;28;20073;-77
2021/11/08 13:32:12;;;;;;;5.63;4.30;;;;;;;7.63;100.00;99960.78;5026287;28;20098;-76
2021/11/08 13:35:05;;;;;;;7.00;3.83;;;;;;;7.67;100.00;99972.94;5013442;28;20046;-76
2021/11/08 13:37:50;;;;;;;9.77;5.93;;;;;;;7.70;100.00;99975.50;5012891;28;20129;-76
2021/11/08 13:40:44;;;;;;;8.25;3.95;;;;;;;7.71;100.00;99982.44;5013272;28;20042;-76
2021/11/08 13:43:43;;;;;;;11.85;7.03;;;;;;;7.75;100.00;99979.78;5013130;28;20560;-76
2021/11/08 13:46:35;;;;;;;13.52;7.05;;;;;;;7.62;100.00;99979.06;5026175;28;20050;-76
2021/11/08 13:49:24;;;;;;;7.55;4.50;;;;;;;7.58;100.00;99990.41;4998306;28;20042;-76
2021/11/08 13:52:09;;;;;;;7.10;4.18;;;;;;;7.39;100.00;99985.34;5013458;28;20042;-76
2021/11/08 13:54:56;;;;;;;18.80;8.82;;;;;;;7.45;100.00;99987.91;5026124;28;20057;-76
2021/11/08 13:57:42;;;;;;;70.97;33.10;;;;;;;7.47;100.00;99977.44;5013051;28;20038;-76
2021/11/08 14:00:27;;;;;;;32.40;18.27;;;;;;;7.33;100.00;99976.72;5012915;28;20042;-75
2021/11/08 14:03:16;;;;;;;15.98;10.55;;;;;;;7.43;100.00;99986.19;5084952;28;20046;-75
2021/11/08 14:06:00;;;;;;;18.90;11.15;;;;;;;7.43;100.00;99984.44;5025960;28;20045;-76
2021/11/08 14:08:47;;;;;;;12.40;7.00;;;;;;;7.36;100.00;99994.94;5012813;28;20111;-76
2021/11/08 14:11:35;;;;;;;25.38;10.25;;;;;;;7.37;100.00;99994.06;4998488;28;20038;-76
2021/11/08 14:14:35;;;;;;;16.40;6.00;;;;;;;7.46;100.00;99997.44;5026396;28;20420;-76
2021/11/08 14:17:22;;;;;;;148.20;41.00;;;;;;;7.43;100.00;99997.47;5011754;28;20043;-76
2021/11/08 14:20:12;;;;;;;233.48;81.38;;;;;;;7.36;100.00;99990.59;5012824;28;20421;-76
2021/11/08 14:22:56;;;;;;;35.65;16.30;;;;;;;7.43;100.00;100005.28;5084659;28;20099;-75
2021/11/08 14:25:41;;;;;;;35.22;18.08;;;;;;;7.39;100.00;100005.34;5012086;28;20052;-76
2021/11/08 14:28:27;;;;;;;22.88;11.70;;;;;;;7.41;100.00;100001.84;5084621;28;20087;-77
2021/11/08 14:31:23;;;;;;;42.75;18.40;;;;;;;7.37;100.00;100007.09;5085131;28;20432;-77
2021/11/08 14:34:12;;;;;;;40.72;19.48;;;;;;;7.37;100.00;100005.34;5084360;28;20038;-76
2021/11/08 14:36:57;;;;;;;80.38;40.35;;;;;;;7.34;100.00;100009.72;5026038;28;20037;-77
2021/11/08 14:39:48;;;;;;;46.17;28.70;;;;;;;7.39;100.00;100015.78;5025356;28;20058;-76
2021/11/08 14:42:37;;;;;;;33.33;22.65;;;;;;;7.45;100.00;100013.13;5025997;28;20417;-77
2021/11/08 14:45:24;;;;;;;42.97;31.45;;;;;;;7.26;100.00;100017.63;5012301;28;20034;-77
2021/11/08 14:48:09;;;;;;;16.70;12.70;;;;;;;7.32;100.00;100025.38;5012227;28;20125;-77